createdAt,value
2023-04-04T00:05:52.102Z,14.40
2023-04-04T00:20:56.561Z,13.90
2023-04-04T00:36:01.060Z,14.10
2023-04-04T00:51:05.735Z,14.10
2023-04-04T01:06:10.820Z,14.10
2023-04-04T01:21:18.308Z,14.00
2023-04-04T01:36:30.608Z,13.80
2023-04-04T01:51:35.727Z,13.90
2023-04-04T02:06:40.584Z,13.50
2023-04-04T02:21:45.293Z,13.60
2023-04-04T02:36:50.661Z,13.50
2023-04-04T02:51:56.617Z,13.40
2023-04-04T03:07:03.868Z,13.10
2023-04-04T03:22:08.526Z,13.00
2023-04-04T03:37:13.158Z,12.90
2023-04-04T03:52:17.710Z,12.70
2023-04-04T04:07:22.294Z,12.50
2023-04-04T04:22:26.856Z,12.40
2023-04-04T04:37:32.038Z,12.40
2023-04-04T04:52:38.828Z,12.20
2023-04-04T05:07:47.714Z,12.10
2023-04-04T05:22:52.567Z,11.90
2023-04-04T05:38:05.185Z,12.00
2023-04-04T05:53:12.339Z,11.80
2023-04-04T06:08:20.047Z,12.00
2023-04-04T06:23:24.614Z,11.90
2023-04-04T06:38:30.489Z,11.90
2023-04-04T06:53:38.617Z,11.80
2023-04-04T07:08:43.185Z,12.00
2023-04-04T07:23:47.721Z,12.10
2023-04-04T07:38:52.180Z,12.00
2023-04-04T07:53:57.145Z,12.20
2023-04-04T08:09:01.705Z,12.10
2023-04-04T08:24:06.455Z,12.40
2023-04-04T08:39:11.415Z,12.30
2023-04-04T08:54:17.630Z,12.40
2023-04-04T09:09:22.891Z,12.50
2023-04-04T09:24:39.078Z,12.90
2023-04-04T09:39:44.103Z,12.50
2023-04-04T09:54:57.436Z,13.20
2023-04-04T10:10:07.452Z,12.50
2023-04-04T10:25:13.357Z,13.10
2023-04-04T10:40:20.527Z,13.60
2023-04-04T10:55:25.679Z,13.50
2023-04-04T11:10:31.922Z,13.50
2023-04-04T11:25:41.227Z,14.00
2023-04-04T11:40:56.163Z,14.40
2023-04-04T11:56:00.586Z,14.30
2023-04-04T12:11:09.376Z,14.50
2023-04-04T12:26:14.035Z,15.20
2023-04-04T12:41:19.645Z,15.40
2023-04-04T12:56:27.451Z,15.70
2023-04-04T13:11:59.888Z,16.20
2023-04-04T13:27:04.382Z,16.60
2023-04-04T13:42:08.931Z,17.20
2023-04-04T13:57:13.513Z,19.10
2023-04-04T14:12:17.983Z,20.50
2023-04-04T14:27:22.465Z,23.50
2023-04-04T14:42:27.084Z,26.00
2023-04-04T14:57:35.632Z,27.80
2023-04-04T15:12:44.213Z,29.80
2023-04-04T15:27:48.723Z,29.10
2023-04-04T15:42:53.323Z,27.70
2023-04-04T15:57:57.762Z,26.90
2023-04-04T16:13:02.250Z,26.20
2023-04-04T16:28:06.809Z,25.40
2023-04-04T16:43:11.358Z,25.00
2023-04-04T16:58:16.206Z,24.40
2023-04-04T17:13:20.986Z,23.50
2023-04-04T17:28:25.691Z,23.20
2023-04-04T17:43:30.246Z,22.40
2023-04-04T17:58:34.669Z,21.40
2023-04-04T18:13:39.290Z,19.00
2023-04-04T18:28:43.803Z,18.70
2023-04-04T18:43:48.278Z,18.50
2023-04-04T18:58:52.787Z,18.00
2023-04-04T19:13:57.386Z,17.80
2023-04-04T19:29:02.400Z,17.40
2023-04-04T19:44:26.921Z,17.30
2023-04-04T20:00:02.989Z,17.10
2023-04-04T20:15:33.100Z,16.80
2023-04-04T20:30:37.727Z,16.60
2023-04-04T20:45:46.879Z,16.30
2023-04-04T21:00:51.495Z,16.10
2023-04-04T21:15:58.898Z,16.20
2023-04-04T21:31:13.712Z,16.10
2023-04-04T21:46:18.374Z,15.90
2023-04-04T22:01:23.142Z,15.80
2023-04-04T22:16:28.580Z,15.60
2023-04-04T22:31:34.959Z,15.70
2023-04-04T22:46:39.866Z,15.40
2023-04-04T23:01:44.598Z,15.20
2023-04-04T23:16:52.394Z,15.40
2023-04-04T23:31:56.798Z,14.90
2023-04-04T23:47:01.352Z,15.00
